sensor_id;sensor_type;location;lat;lon;timestamp;P1;durP1;ratioP1;P2;durP2;ratioP2
14858;SDS011;7521;51.700;6.874;2024-02-14T00:01:54;7.37;;;3.60;;
14858;SDS011;7521;51.700;6.874;2024-02-14T00:05:00;7.30;;;3.70;;
14858;SDS011;7521;51.700;6.874;2024-02-14T00:08:05;7.73;;;3.97;;
14858;SDS011;7521;51.700;6.874;2024-02-14T00:11:12;10.07;;;3.97;;
14858;SDS011;7521;51.700;6.874;2024-02-14T00:14:19;8.23;;;3.77;;
14858;SDS011;7521;51.700;6.874;2024-02-14T00:17:27;8.53;;;3.63;;
14858;SDS011;7521;51.700;6.874;2024-02-14T00:20:32;10.10;;;4.00;;
14858;SDS011;7521;51.700;6.874;2024-02-14T00:23:37;7.77;;;3.63;;
14858;SDS011;7521;51.700;6.874;2024-02-14T00:26:42;7.10;;;3.67;;
14858;SDS011;7521;51.700;6.874;2024-02-14T00:29:48;10.48;;;3.63;;
14858;SDS011;7521;51.700;6.874;2024-02-14T00:32:53;8.10;;;4.30;;
14858;SDS011;7521;51.700;6.874;2024-02-14T00:35:58;8.65;;;4.85;;
14858;SDS011;7521;51.700;6.874;2024-02-14T00:39:03;9.17;;;5.20;;
14858;SDS011;7521;51.700;6.874;2024-02-14T00:42:09;8.38;;;4.30;;
14858;SDS011;7521;51.700;6.874;2024-02-14T00:45:14;9.63;;;5.03;;
14858;SDS011;7521;51.700;6.874;2024-02-14T00:48:20;9.00;;;4.77;;
14858;SDS011;7521;51.700;6.874;2024-02-14T00:51:25;11.02;;;5.63;;
14858;SDS011;7521;51.700;6.874;2024-02-14T00:54:30;13.43;;;5.57;;
14858;SDS011;7521;51.700;6.874;2024-02-14T00:57:35;10.63;;;4.93;;
14858;SDS011;7521;51.700;6.874;2024-02-14T01:00:40;10.03;;;5.20;;
14858;SDS011;7521;51.700;6.874;2024-02-14T01:03:46;12.07;;;5.30;;
14858;SDS011;7521;51.700;6.874;2024-02-14T01:06:51;8.55;;;5.03;;
14858;SDS011;7521;51.700;6.874;2024-02-14T01:09:59;11.90;;;4.90;;
14858;SDS011;7521;51.700;6.874;2024-02-14T01:13:04;10.40;;;4.88;;
14858;SDS011;7521;51.700;6.874;2024-02-14T01:16:11;6.47;;;4.37;;
14858;SDS011;7521;51.700;6.874;2024-02-14T01:19:16;8.63;;;4.03;;
14858;SDS011;7521;51.700;6.874;2024-02-14T01:22:25;9.60;;;4.63;;
14858;SDS011;7521;51.700;6.874;2024-02-14T01:25:30;9.47;;;4.13;;
14858;SDS011;7521;51.700;6.874;2024-02-14T01:28:35;5.57;;;3.78;;
14858;SDS011;7521;51.700;6.874;2024-02-14T01:31:40;5.70;;;3.20;;
14858;SDS011;7521;51.700;6.874;2024-02-14T01:34:45;6.10;;;3.73;;
14858;SDS011;7521;51.700;6.874;2024-02-14T01:37:51;8.40;;;4.20;;
14858;SDS011;7521;51.700;6.874;2024-02-14T01:40:57;7.43;;;4.20;;
14858;SDS011;7521;51.700;6.874;2024-02-14T01:44:02;9.82;;;4.38;;
14858;SDS011;7521;51.700;6.874;2024-02-14T01:47:07;8.37;;;4.03;;
14858;SDS011;7521;51.700;6.874;2024-02-14T01:50:14;8.93;;;4.53;;
14858;SDS011;7521;51.700;6.874;2024-02-14T01:53:19;10.32;;;3.92;;
14858;SDS011;7521;51.700;6.874;2024-02-14T01:56:25;6.03;;;3.70;;
14858;SDS011;7521;51.700;6.874;2024-02-14T01:59:33;8.43;;;3.73;;
14858;SDS011;7521;51.700;6.874;2024-02-14T02:02:39;10.93;;;3.90;;
14858;SDS011;7521;51.700;6.874;2024-02-14T02:05:45;6.63;;;4.00;;
14858;SDS011;7521;51.700;6.874;2024-02-14T02:08:50;6.60;;;3.63;;
14858;SDS011;7521;51.700;6.874;2024-02-14T02:11:55;7.60;;;4.13;;
14858;SDS011;7521;51.700;6.874;2024-02-14T02:15:03;7.03;;;3.50;;
14858;SDS011;7521;51.700;6.874;2024-02-14T02:18:08;6.50;;;3.60;;
14858;SDS011;7521;51.700;6.874;2024-02-14T02:21:14;4.68;;;3.30;;
14858;SDS011;7521;51.700;6.874;2024-02-14T02:24:19;8.63;;;3.67;;
14858;SDS011;7521;51.700;6.874;2024-02-14T02:27:24;8.80;;;3.95;;
14858;SDS011;7521;51.700;6.874;2024-02-14T02:30:29;10.23;;;3.38;;
14858;SDS011;7521;51.700;6.874;2024-02-14T02:33:34;6.68;;;3.05;;
14858;SDS011;7521;51.700;6.874;2024-02-14T02:36:40;4.57;;;3.13;;
14858;SDS011;7521;51.700;6.874;2024-02-14T02:39:46;4.97;;;2.90;;
14858;SDS011;7521;51.700;6.874;2024-02-14T02:42:51;5.33;;;3.60;;
14858;SDS011;7521;51.700;6.874;2024-02-14T02:45:56;6.00;;;2.60;;
14858;SDS011;7521;51.700;6.874;2024-02-14T02:49:03;3.57;;;2.30;;
14858;SDS011;7521;51.700;6.874;2024-02-14T02:52:08;3.50;;;2.33;;
14858;SDS011;7521;51.700;6.874;2024-02-14T02:55:14;6.10;;;2.70;;
14858;SDS011;7521;51.700;6.874;2024-02-14T02:58:23;3.90;;;2.27;;
14858;SDS011;7521;51.700;6.874;2024-02-14T03:01:28;2.53;;;2.03;;
14858;SDS011;7521;51.700;6.874;2024-02-14T03:04:36;4.57;;;2.20;;
14858;SDS011;7521;51.700;6.874;2024-02-14T03:07:42;3.93;;;2.37;;
14858;SDS011;7521;51.700;6.874;2024-02-14T03:10:50;5.03;;;2.40;;
14858;SDS011;7521;51.700;6.874;2024-02-14T03:13:55;6.20;;;2.60;;
14858;SDS011;7521;51.700;6.874;2024-02-14T03:17:00;6.10;;;2.40;;
14858;SDS011;7521;51.700;6.874;2024-02-14T03:20:06;4.93;;;2.43;;
14858;SDS011;7521;51.700;6.874;2024-02-14T03:23:18;3.67;;;2.10;;
14858;SDS011;7521;51.700;6.874;2024-02-14T03:26:23;4.97;;;2.40;;
14858;SDS011;7521;51.700;6.874;2024-02-14T03:29:29;5.17;;;2.43;;
14858;SDS011;7521;51.700;6.874;2024-02-14T03:32:34;5.40;;;2.30;;
14858;SDS011;7521;51.700;6.874;2024-02-14T03:35:39;5.93;;;2.13;;
14858;SDS011;7521;51.700;6.874;2024-02-14T03:38:46;4.80;;;2.53;;
14858;SDS011;7521;51.700;6.874;2024-02-14T03:41:51;4.13;;;2.23;;
14858;SDS011;7521;51.700;6.874;2024-02-14T03:44:57;4.67;;;2.70;;
14858;SDS011;7521;51.700;6.874;2024-02-14T03:48:07;7.30;;;2.40;;
14858;SDS011;7521;51.700;6.874;2024-02-14T03:51:12;4.20;;;2.80;;
14858;SDS011;7521;51.700;6.874;2024-02-14T03:54:18;4.80;;;2.30;;
14858;SDS011;7521;51.700;6.874;2024-02-14T03:57:23;6.53;;;2.72;;
14858;SDS011;7521;51.700;6.874;2024-02-14T04:00:30;4.53;;;2.30;;
14858;SDS011;7521;51.700;6.874;2024-02-14T04:03:36;3.97;;;2.63;;
14858;SDS011;7521;51.700;6.874;2024-02-14T04:06:41;6.38;;;2.75;;
14858;SDS011;7521;51.700;6.874;2024-02-14T04:09:47;5.27;;;3.07;;
14858;SDS011;7521;51.700;6.874;2024-02-14T04:12:52;4.68;;;2.83;;
14858;SDS011;7521;51.700;6.874;2024-02-14T04:15:57;4.47;;;2.90;;
14858;SDS011;7521;51.700;6.874;2024-02-14T04:19:02;4.15;;;2.70;;
14858;SDS011;7521;51.700;6.874;2024-02-14T04:22:08;4.73;;;3.17;;
14858;SDS011;7521;51.700;6.874;2024-02-14T04:25:13;5.57;;;3.20;;
14858;SDS011;7521;51.700;6.874;2024-02-14T04:28:19;8.47;;;3.20;;
14858;SDS011;7521;51.700;6.874;2024-02-14T04:31:24;3.95;;;2.83;;
14858;SDS011;7521;51.700;6.874;2024-02-14T04:34:29;6.45;;;2.95;;
14858;SDS011;7521;51.700;6.874;2024-02-14T04:37:35;5.37;;;3.27;;
14858;SDS011;7521;51.700;6.874;2024-02-14T04:40:40;3.53;;;2.50;;
14858;SDS011;7521;51.700;6.874;2024-02-14T04:43:45;4.23;;;2.70;;
14858;SDS011;7521;51.700;6.874;2024-02-14T04:46:50;3.95;;;2.88;;
14858;SDS011;7521;51.700;6.874;2024-02-14T04:49:55;4.80;;;2.92;;
14858;SDS011;7521;51.700;6.874;2024-02-14T04:53:01;6.03;;;3.27;;
14858;SDS011;7521;51.700;6.874;2024-02-14T04:56:06;4.53;;;2.73;;
14858;SDS011;7521;51.700;6.874;2024-02-14T04:59:12;3.67;;;2.70;;
14858;SDS011;7521;51.700;6.874;2024-02-14T05:02:18;3.93;;;2.37;;
14858;SDS011;7521;51.700;6.874;2024-02-14T05:05:23;5.93;;;3.10;;
14858;SDS011;7521;51.700;6.874;2024-02-14T05:08:28;5.07;;;2.95;;
14858;SDS011;7521;51.700;6.874;2024-02-14T05:11:33;5.07;;;3.50;;
14858;SDS011;7521;51.700;6.874;2024-02-14T05:14:41;5.30;;;2.80;;
14858;SDS011;7521;51.700;6.874;2024-02-14T05:17:46;4.17;;;2.90;;
14858;SDS011;7521;51.700;6.874;2024-02-14T05:20:52;3.70;;;2.80;;
14858;SDS011;7521;51.700;6.874;2024-02-14T05:23:57;8.68;;;3.53;;
14858;SDS011;7521;51.700;6.874;2024-02-14T05:27:03;4.13;;;3.10;;
14858;SDS011;7521;51.700;6.874;2024-02-14T05:30:08;5.60;;;3.30;;
14858;SDS011;7521;51.700;6.874;2024-02-14T05:33:14;5.00;;;3.10;;
14858;SDS011;7521;51.700;6.874;2024-02-14T05:36:19;4.87;;;2.90;;
14858;SDS011;7521;51.700;6.874;2024-02-14T05:39:24;4.97;;;2.87;;
14858;SDS011;7521;51.700;6.874;2024-02-14T05:42:29;4.82;;;2.67;;
14858;SDS011;7521;51.700;6.874;2024-02-14T05:45:35;5.60;;;2.78;;
14858;SDS011;7521;51.700;6.874;2024-02-14T05:48:40;3.83;;;2.80;;
14858;SDS011;7521;51.700;6.874;2024-02-14T05:51:45;4.93;;;2.97;;
14858;SDS011;7521;51.700;6.874;2024-02-14T05:54:50;6.30;;;3.78;;
14858;SDS011;7521;51.700;6.874;2024-02-14T05:57:55;4.33;;;3.20;;
14858;SDS011;7521;51.700;6.874;2024-02-14T06:01:02;5.57;;;3.30;;
14858;SDS011;7521;51.700;6.874;2024-02-14T06:04:07;5.23;;;3.33;;
14858;SDS011;7521;51.700;6.874;2024-02-14T06:07:12;5.50;;;3.78;;
14858;SDS011;7521;51.700;6.874;2024-02-14T06:10:18;5.57;;;3.70;;
14858;SDS011;7521;51.700;6.874;2024-02-14T06:13:23;5.30;;;3.50;;
14858;SDS011;7521;51.700;6.874;2024-02-14T06:16:28;5.07;;;3.40;;
14858;SDS011;7521;51.700;6.874;2024-02-14T06:19:33;5.53;;;3.50;;
14858;SDS011;7521;51.700;6.874;2024-02-14T06:22:40;5.63;;;3.80;;
14858;SDS011;7521;51.700;6.874;2024-02-14T06:25:45;5.40;;;4.00;;
14858;SDS011;7521;51.700;6.874;2024-02-14T06:28:50;6.03;;;3.53;;
14858;SDS011;7521;51.700;6.874;2024-02-14T06:31:59;6.43;;;4.53;;
14858;SDS011;7521;51.700;6.874;2024-02-14T06:35:04;5.60;;;4.53;;
14858;SDS011;7521;51.700;6.874;2024-02-14T06:38:09;5.33;;;4.10;;
14858;SDS011;7521;51.700;6.874;2024-02-14T06:41:15;5.50;;;4.03;;
14858;SDS011;7521;51.700;6.874;2024-02-14T06:44:20;8.63;;;4.70;;
14858;SDS011;7521;51.700;6.874;2024-02-14T06:47:25;6.67;;;4.77;;
14858;SDS011;7521;51.700;6.874;2024-02-14T06:50:34;7.33;;;5.03;;
14858;SDS011;7521;51.700;6.874;2024-02-14T06:53:39;7.50;;;4.63;;
14858;SDS011;7521;51.700;6.874;2024-02-14T06:56:45;6.80;;;4.90;;
14858;SDS011;7521;51.700;6.874;2024-02-14T06:59:50;10.13;;;5.60;;
14858;SDS011;7521;51.700;6.874;2024-02-14T07:02:55;6.85;;;5.47;;
14858;SDS011;7521;51.700;6.874;2024-02-14T07:06:00;8.07;;;5.47;;
14858;SDS011;7521;51.700;6.874;2024-02-14T07:09:06;6.30;;;5.70;;
14858;SDS011;7521;51.700;6.874;2024-02-14T07:12:11;7.30;;;5.60;;
14858;SDS011;7521;51.700;6.874;2024-02-14T07:15:16;9.48;;;5.63;;
14858;SDS011;7521;51.700;6.874;2024-02-14T07:18:22;9.07;;;6.67;;
14858;SDS011;7521;51.700;6.874;2024-02-14T07:21:27;6.33;;;5.67;;
14858;SDS011;7521;51.700;6.874;2024-02-14T07:24:32;6.93;;;6.33;;
14858;SDS011;7521;51.700;6.874;2024-02-14T07:27:37;11.40;;;8.00;;
14858;SDS011;7521;51.700;6.874;2024-02-14T07:30:43;7.70;;;6.83;;
14858;SDS011;7521;51.700;6.874;2024-02-14T07:33:48;8.73;;;6.43;;
14858;SDS011;7521;51.700;6.874;2024-02-14T07:36:54;7.73;;;6.80;;
14858;SDS011;7521;51.700;6.874;2024-02-14T07:39:59;7.65;;;6.85;;
14858;SDS011;7521;51.700;6.874;2024-02-14T07:43:05;7.50;;;6.67;;
14858;SDS011;7521;51.700;6.874;2024-02-14T07:46:16;8.17;;;6.73;;
14858;SDS011;7521;51.700;6.874;2024-02-14T07:49:21;12.67;;;6.97;;
14858;SDS011;7521;51.700;6.874;2024-02-14T07:52:26;11.43;;;7.70;;
14858;SDS011;7521;51.700;6.874;2024-02-14T07:55:31;8.60;;;6.97;;
14858;SDS011;7521;51.700;6.874;2024-02-14T07:58:37;10.97;;;7.43;;
14858;SDS011;7521;51.700;6.874;2024-02-14T08:01:42;7.50;;;6.70;;
14858;SDS011;7521;51.700;6.874;2024-02-14T08:04:48;10.33;;;7.57;;
14858;SDS011;7521;51.700;6.874;2024-02-14T08:07:53;12.85;;;8.00;;
14858;SDS011;7521;51.700;6.874;2024-02-14T08:10:58;9.90;;;7.55;;
14858;SDS011;7521;51.700;6.874;2024-02-14T08:14:04;9.45;;;8.10;;
14858;SDS011;7521;51.700;6.874;2024-02-14T08:17:10;8.60;;;7.40;;
14858;SDS011;7521;51.700;6.874;2024-02-14T08:20:15;8.80;;;7.87;;
14858;SDS011;7521;51.700;6.874;2024-02-14T08:23:20;9.53;;;7.80;;
14858;SDS011;7521;51.700;6.874;2024-02-14T08:26:25;12.03;;;7.73;;
14858;SDS011;7521;51.700;6.874;2024-02-14T08:29:31;9.93;;;7.37;;
14858;SDS011;7521;51.700;6.874;2024-02-14T08:32:36;9.82;;;7.28;;
14858;SDS011;7521;51.700;6.874;2024-02-14T08:35:41;10.93;;;7.53;;
14858;SDS011;7521;51.700;6.874;2024-02-14T08:38:46;12.10;;;7.70;;
14858;SDS011;7521;51.700;6.874;2024-02-14T08:41:51;10.07;;;7.00;;
14858;SDS011;7521;51.700;6.874;2024-02-14T08:44:57;7.97;;;6.50;;
14858;SDS011;7521;51.700;6.874;2024-02-14T08:48:03;13.48;;;7.32;;
14858;SDS011;7521;51.700;6.874;2024-02-14T08:51:08;8.03;;;6.37;;
14858;SDS011;7521;51.700;6.874;2024-02-14T08:54:14;7.77;;;6.50;;
14858;SDS011;7521;51.700;6.874;2024-02-14T08:57:21;9.77;;;6.20;;
14858;SDS011;7521;51.700;6.874;2024-02-14T09:00:27;11.20;;;6.23;;
14858;SDS011;7521;51.700;6.874;2024-02-14T09:03:33;10.37;;;6.23;;
14858;SDS011;7521;51.700;6.874;2024-02-14T09:06:38;8.57;;;6.00;;
14858;SDS011;7521;51.700;6.874;2024-02-14T09:09:45;8.83;;;5.93;;
14858;SDS011;7521;51.700;6.874;2024-02-14T09:12:51;7.53;;;5.30;;
14858;SDS011;7521;51.700;6.874;2024-02-14T09:15:56;15.93;;;6.45;;
14858;SDS011;7521;51.700;6.874;2024-02-14T09:19:01;8.50;;;6.03;;
14858;SDS011;7521;51.700;6.874;2024-02-14T09:22:06;9.67;;;6.00;;
14858;SDS011;7521;51.700;6.874;2024-02-14T09:25:12;8.02;;;5.75;;
14858;SDS011;7521;51.700;6.874;2024-02-14T09:28:19;7.77;;;5.93;;
14858;SDS011;7521;51.700;6.874;2024-02-14T09:31:24;7.40;;;6.10;;
14858;SDS011;7521;51.700;6.874;2024-02-14T09:34:30;9.82;;;5.95;;
14858;SDS011;7521;51.700;6.874;2024-02-14T09:37:36;9.30;;;6.43;;
14858;SDS011;7521;51.700;6.874;2024-02-14T09:40:43;8.30;;;5.70;;
14858;SDS011;7521;51.700;6.874;2024-02-14T09:43:48;10.80;;;6.45;;
14858;SDS011;7521;51.700;6.874;2024-02-14T09:46:54;10.27;;;6.30;;
14858;SDS011;7521;51.700;6.874;2024-02-14T09:50:03;9.23;;;6.13;;
14858;SDS011;7521;51.700;6.874;2024-02-14T09:53:08;8.53;;;6.20;;
14858;SDS011;7521;51.700;6.874;2024-02-14T09:56:14;14.33;;;6.40;;
14858;SDS011;7521;51.700;6.874;2024-02-14T09:59:22;11.33;;;5.80;;
14858;SDS011;7521;51.700;6.874;2024-02-14T10:02:29;9.90;;;5.33;;
14858;SDS011;7521;51.700;6.874;2024-02-14T10:05:34;7.37;;;5.20;;
14858;SDS011;7521;51.700;6.874;2024-02-14T10:08:40;8.87;;;5.87;;
14858;SDS011;7521;51.700;6.874;2024-02-14T10:11:45;8.47;;;5.63;;
14858;SDS011;7521;51.700;6.874;2024-02-14T10:14:51;11.20;;;5.53;;
14858;SDS011;7521;51.700;6.874;2024-02-14T10:17:57;9.63;;;6.20;;
14858;SDS011;7521;51.700;6.874;2024-02-14T10:21:03;10.67;;;5.53;;
14858;SDS011;7521;51.700;6.874;2024-02-14T10:24:09;12.57;;;5.77;;
14858;SDS011;7521;51.700;6.874;2024-02-14T10:27:15;9.03;;;5.10;;
14858;SDS011;7521;51.700;6.874;2024-02-14T10:30:20;9.93;;;5.07;;
14858;SDS011;7521;51.700;6.874;2024-02-14T10:33:29;8.47;;;5.23;;
14858;SDS011;7521;51.700;6.874;2024-02-14T10:36:35;7.47;;;4.70;;
14858;SDS011;7521;51.700;6.874;2024-02-14T10:39:41;6.37;;;4.80;;
14858;SDS011;7521;51.700;6.874;2024-02-14T10:42:46;7.67;;;4.60;;
14858;SDS011;7521;51.700;6.874;2024-02-14T10:45:55;8.77;;;4.23;;
14858;SDS011;7521;51.700;6.874;2024-02-14T10:49:04;11.07;;;4.80;;
14858;SDS011;7521;51.700;6.874;2024-02-14T10:52:10;7.63;;;4.50;;
14858;SDS011;7521;51.700;6.874;2024-02-14T10:55:16;9.03;;;4.73;;
14858;SDS011;7521;51.700;6.874;2024-02-14T10:58:22;6.93;;;3.73;;
14858;SDS011;7521;51.700;6.874;2024-02-14T11:01:29;5.83;;;3.90;;
14858;SDS011;7521;51.700;6.874;2024-02-14T11:04:37;7.33;;;4.50;;
14858;SDS011;7521;51.700;6.874;2024-02-14T11:07:46;8.47;;;3.90;;
14858;SDS011;7521;51.700;6.874;2024-02-14T11:10:55;6.33;;;3.57;;
14858;SDS011;7521;51.700;6.874;2024-02-14T11:14:04;8.40;;;4.00;;
14858;SDS011;7521;51.700;6.874;2024-02-14T11:17:09;7.33;;;3.37;;
14858;SDS011;7521;51.700;6.874;2024-02-14T11:20:21;6.50;;;3.30;;
14858;SDS011;7521;51.700;6.874;2024-02-14T11:23:35;6.97;;;3.33;;
14858;SDS011;7521;51.700;6.874;2024-02-14T11:26:47;8.65;;;2.95;;
14858;SDS011;7521;51.700;6.874;2024-02-14T11:29:52;7.90;;;3.30;;
14858;SDS011;7521;51.700;6.874;2024-02-14T11:33:16;4.97;;;3.20;;
14858;SDS011;7521;51.700;6.874;2024-02-14T11:36:25;8.80;;;3.73;;
14858;SDS011;7521;51.700;6.874;2024-02-14T11:39:32;5.03;;;2.90;;
14858;SDS011;7521;51.700;6.874;2024-02-14T11:42:38;4.20;;;2.97;;
14858;SDS011;7521;51.700;6.874;2024-02-14T11:45:43;7.88;;;3.10;;
14858;SDS011;7521;51.700;6.874;2024-02-14T11:48:50;5.63;;;3.23;;
14858;SDS011;7521;51.700;6.874;2024-02-14T11:51:57;4.90;;;2.83;;
14858;SDS011;7521;51.700;6.874;2024-02-14T11:55:03;3.42;;;2.90;;
14858;SDS011;7521;51.700;6.874;2024-02-14T11:58:11;6.97;;;3.07;;
14858;SDS011;7521;51.700;6.874;2024-02-14T12:01:18;4.60;;;2.60;;
14858;SDS011;7521;51.700;6.874;2024-02-14T12:04:23;7.03;;;2.70;;
14858;SDS011;7521;51.700;6.874;2024-02-14T12:07:28;6.20;;;3.00;;
14858;SDS011;7521;51.700;6.874;2024-02-14T12:10:37;3.97;;;2.43;;
14858;SDS011;7521;51.700;6.874;2024-02-14T12:13:49;3.70;;;2.40;;
14858;SDS011;7521;51.700;6.874;2024-02-14T12:17:00;5.90;;;2.17;;
14858;SDS011;7521;51.700;6.874;2024-02-14T12:20:08;5.10;;;2.40;;
14858;SDS011;7521;51.700;6.874;2024-02-14T12:23:19;4.63;;;2.43;;
14858;SDS011;7521;51.700;6.874;2024-02-14T12:26:24;4.13;;;2.00;;
14858;SDS011;7521;51.700;6.874;2024-02-14T12:29:29;5.00;;;2.00;;
14858;SDS011;7521;51.700;6.874;2024-02-14T12:32:34;3.17;;;1.80;;
14858;SDS011;7521;51.700;6.874;2024-02-14T12:35:41;4.60;;;1.73;;
14858;SDS011;7521;51.700;6.874;2024-02-14T12:38:47;3.50;;;1.90;;
14858;SDS011;7521;51.700;6.874;2024-02-14T12:41:53;2.27;;;1.70;;
14858;SDS011;7521;51.700;6.874;2024-02-14T12:44:59;5.07;;;1.67;;
14858;SDS011;7521;51.700;6.874;2024-02-14T12:48:09;2.28;;;1.60;;
14858;SDS011;7521;51.700;6.874;2024-02-14T12:51:14;2.03;;;1.47;;
14858;SDS011;7521;51.700;6.874;2024-02-14T12:54:19;4.17;;;1.97;;
14858;SDS011;7521;51.700;6.874;2024-02-14T12:57:25;3.07;;;1.80;;
14858;SDS011;7521;51.700;6.874;2024-02-14T13:00:30;2.87;;;1.57;;
14858;SDS011;7521;51.700;6.874;2024-02-14T13:03:37;2.50;;;1.40;;
14858;SDS011;7521;51.700;6.874;2024-02-14T13:06:43;2.47;;;1.53;;
14858;SDS011;7521;51.700;6.874;2024-02-14T13:09:48;2.77;;;1.30;;
14858;SDS011;7521;51.700;6.874;2024-02-14T13:12:53;1.53;;;1.13;;
14858;SDS011;7521;51.700;6.874;2024-02-14T13:15:59;2.10;;;1.40;;
14858;SDS011;7521;51.700;6.874;2024-02-14T13:19:04;5.80;;;1.37;;
14858;SDS011;7521;51.700;6.874;2024-02-14T13:22:10;2.57;;;1.30;;
14858;SDS011;7521;51.700;6.874;2024-02-14T13:25:15;1.85;;;1.50;;
14858;SDS011;7521;51.700;6.874;2024-02-14T13:28:20;2.37;;;1.50;;
14858;SDS011;7521;51.700;6.874;2024-02-14T13:31:25;4.20;;;1.63;;
14858;SDS011;7521;51.700;6.874;2024-02-14T13:34:31;2.33;;;1.40;;
14858;SDS011;7521;51.700;6.874;2024-02-14T13:37:36;2.42;;;1.70;;
14858;SDS011;7521;51.700;6.874;2024-02-14T13:40:41;2.63;;;1.40;;
14858;SDS011;7521;51.700;6.874;2024-02-14T13:43:46;1.88;;;1.65;;
14858;SDS011;7521;51.700;6.874;2024-02-14T13:46:52;2.97;;;1.53;;
14858;SDS011;7521;51.700;6.874;2024-02-14T13:49:58;2.50;;;1.80;;
14858;SDS011;7521;51.700;6.874;2024-02-14T13:53:03;3.13;;;1.45;;
14858;SDS011;7521;51.700;6.874;2024-02-14T13:56:09;3.23;;;2.00;;
14858;SDS011;7521;51.700;6.874;2024-02-14T13:59:14;2.33;;;1.70;;
14858;SDS011;7521;51.700;6.874;2024-02-14T14:02:20;2.50;;;1.73;;
14858;SDS011;7521;51.700;6.874;2024-02-14T14:05:25;3.10;;;2.20;;
14858;SDS011;7521;51.700;6.874;2024-02-14T14:08:31;2.70;;;1.70;;
14858;SDS011;7521;51.700;6.874;2024-02-14T14:11:37;2.27;;;1.93;;
14858;SDS011;7521;51.700;6.874;2024-02-14T14:14:44;3.53;;;1.90;;
14858;SDS011;7521;51.700;6.874;2024-02-14T14:17:49;7.18;;;1.88;;
14858;SDS011;7521;51.700;6.874;2024-02-14T14:20:54;4.33;;;1.80;;
14858;SDS011;7521;51.700;6.874;2024-02-14T14:23:59;4.13;;;2.00;;
14858;SDS011;7521;51.700;6.874;2024-02-14T14:27:05;2.63;;;1.97;;
14858;SDS011;7521;51.700;6.874;2024-02-14T14:30:13;2.37;;;1.57;;
14858;SDS011;7521;51.700;6.874;2024-02-14T14:33:19;2.20;;;1.67;;
14858;SDS011;7521;51.700;6.874;2024-02-14T14:36:24;3.83;;;1.80;;
14858;SDS011;7521;51.700;6.874;2024-02-14T14:39:30;2.43;;;1.60;;
14858;SDS011;7521;51.700;6.874;2024-02-14T14:42:36;3.90;;;1.60;;
14858;SDS011;7521;51.700;6.874;2024-02-14T14:45:41;2.73;;;1.40;;
14858;SDS011;7521;51.700;6.874;2024-02-14T14:48:47;1.67;;;1.33;;
14858;SDS011;7521;51.700;6.874;2024-02-14T14:51:52;1.90;;;1.40;;
14858;SDS011;7521;51.700;6.874;2024-02-14T14:54:59;2.77;;;1.50;;
14858;SDS011;7521;51.700;6.874;2024-02-14T14:58:13;1.80;;;0.97;;
14858;SDS011;7521;51.700;6.874;2024-02-14T15:01:18;1.20;;;1.10;;
14858;SDS011;7521;51.700;6.874;2024-02-14T15:04:24;3.30;;;1.60;;
14858;SDS011;7521;51.700;6.874;2024-02-14T15:07:29;1.70;;;1.60;;
14858;SDS011;7521;51.700;6.874;2024-02-14T15:10:34;3.40;;;1.60;;
14858;SDS011;7521;51.700;6.874;2024-02-14T15:13:40;1.87;;;1.30;;
14858;SDS011;7521;51.700;6.874;2024-02-14T15:16:45;4.00;;;1.33;;
14858;SDS011;7521;51.700;6.874;2024-02-14T15:19:50;1.42;;;1.00;;
14858;SDS011;7521;51.700;6.874;2024-02-14T15:22:56;1.23;;;1.13;;
14858;SDS011;7521;51.700;6.874;2024-02-14T15:26:01;1.53;;;1.43;;
14858;SDS011;7521;51.700;6.874;2024-02-14T15:29:11;1.07;;;0.97;;
14858;SDS011;7521;51.700;6.874;2024-02-14T15:32:35;1.27;;;0.90;;
14858;SDS011;7521;51.700;6.874;2024-02-14T15:35:58;0.73;;;0.70;;
14858;SDS011;7521;51.700;6.874;2024-02-14T15:39:04;1.37;;;0.93;;
14858;SDS011;7521;51.700;6.874;2024-02-14T15:42:11;2.07;;;0.97;;
14858;SDS011;7521;51.700;6.874;2024-02-14T15:45:16;0.93;;;0.77;;
14858;SDS011;7521;51.700;6.874;2024-02-14T15:48:22;1.20;;;1.00;;
14858;SDS011;7521;51.700;6.874;2024-02-14T15:51:29;0.67;;;0.67;;
14858;SDS011;7521;51.700;6.874;2024-02-14T15:54:35;1.70;;;0.90;;
14858;SDS011;7521;51.700;6.874;2024-02-14T15:57:41;2.53;;;1.17;;
14858;SDS011;7521;51.700;6.874;2024-02-14T16:00:47;1.87;;;1.27;;
14858;SDS011;7521;51.700;6.874;2024-02-14T16:03:52;2.33;;;1.30;;
14858;SDS011;7521;51.700;6.874;2024-02-14T16:06:57;2.10;;;1.50;;
14858;SDS011;7521;51.700;6.874;2024-02-14T16:10:02;1.50;;;1.40;;
14858;SDS011;7521;51.700;6.874;2024-02-14T16:13:08;2.17;;;1.27;;
14858;SDS011;7521;51.700;6.874;2024-02-14T16:16:13;1.98;;;1.77;;
14858;SDS011;7521;51.700;6.874;2024-02-14T16:19:18;1.97;;;1.80;;
14858;SDS011;7521;51.700;6.874;2024-02-14T16:22:24;3.35;;;1.92;;
14858;SDS011;7521;51.700;6.874;2024-02-14T16:25:29;2.70;;;2.40;;
14858;SDS011;7521;51.700;6.874;2024-02-14T16:28:35;2.50;;;2.30;;
14858;SDS011;7521;51.700;6.874;2024-02-14T16:31:41;3.17;;;2.37;;
14858;SDS011;7521;51.700;6.874;2024-02-14T16:34:46;2.57;;;2.30;;
14858;SDS011;7521;51.700;6.874;2024-02-14T16:37:53;3.07;;;2.33;;
14858;SDS011;7521;51.700;6.874;2024-02-14T16:40:59;2.97;;;2.40;;
14858;SDS011;7521;51.700;6.874;2024-02-14T16:44:04;2.00;;;1.80;;
14858;SDS011;7521;51.700;6.874;2024-02-14T16:47:11;2.38;;;2.17;;
14858;SDS011;7521;51.700;6.874;2024-02-14T16:50:16;3.77;;;2.87;;
14858;SDS011;7521;51.700;6.874;2024-02-14T16:53:21;3.37;;;2.80;;
14858;SDS011;7521;51.700;6.874;2024-02-14T16:56:26;6.03;;;2.80;;
14858;SDS011;7521;51.700;6.874;2024-02-14T16:59:36;2.73;;;2.20;;
14858;SDS011;7521;51.700;6.874;2024-02-14T17:02:42;3.53;;;2.50;;
14858;SDS011;7521;51.700;6.874;2024-02-14T17:05:50;3.07;;;2.53;;
14858;SDS011;7521;51.700;6.874;2024-02-14T17:08:55;2.42;;;2.22;;
14858;SDS011;7521;51.700;6.874;2024-02-14T17:12:00;2.50;;;2.30;;
14858;SDS011;7521;51.700;6.874;2024-02-14T17:15:06;2.60;;;2.33;;
14858;SDS011;7521;51.700;6.874;2024-02-14T17:18:11;3.80;;;2.20;;
14858;SDS011;7521;51.700;6.874;2024-02-14T17:21:17;2.67;;;2.27;;
14858;SDS011;7521;51.700;6.874;2024-02-14T17:24:22;3.10;;;2.80;;
14858;SDS011;7521;51.700;6.874;2024-02-14T17:27:28;2.70;;;2.43;;
14858;SDS011;7521;51.700;6.874;2024-02-14T17:30:33;3.07;;;2.73;;
14858;SDS011;7521;51.700;6.874;2024-02-14T17:33:38;3.70;;;3.27;;
14858;SDS011;7521;51.700;6.874;2024-02-14T17:36:44;4.23;;;3.83;;
14858;SDS011;7521;51.700;6.874;2024-02-14T17:39:49;4.20;;;3.80;;
14858;SDS011;7521;51.700;6.874;2024-02-14T17:42:54;4.53;;;4.13;;
14858;SDS011;7521;51.700;6.874;2024-02-14T17:45:59;5.43;;;4.93;;
14858;SDS011;7521;51.700;6.874;2024-02-14T17:49:05;5.87;;;5.27;;
14858;SDS011;7521;51.700;6.874;2024-02-14T17:52:17;5.80;;;5.23;;
14858;SDS011;7521;51.700;6.874;2024-02-14T17:55:22;5.70;;;5.13;;
14858;SDS011;7521;51.700;6.874;2024-02-14T17:58:28;6.07;;;5.47;;
14858;SDS011;7521;51.700;6.874;2024-02-14T18:01:35;6.27;;;5.63;;
14858;SDS011;7521;51.700;6.874;2024-02-14T18:04:41;6.47;;;5.87;;
14858;SDS011;7521;51.700;6.874;2024-02-14T18:07:46;6.60;;;5.93;;
14858;SDS011;7521;51.700;6.874;2024-02-14T18:10:51;6.68;;;6.03;;
14858;SDS011;7521;51.700;6.874;2024-02-14T18:13:58;6.83;;;5.90;;
14858;SDS011;7521;51.700;6.874;2024-02-14T18:17:03;6.15;;;5.55;;
14858;SDS011;7521;51.700;6.874;2024-02-14T18:20:09;7.63;;;6.03;;
14858;SDS011;7521;51.700;6.874;2024-02-14T18:23:14;6.40;;;5.80;;
14858;SDS011;7521;51.700;6.874;2024-02-14T18:26:19;6.90;;;6.20;;
14858;SDS011;7521;51.700;6.874;2024-02-14T18:29:26;6.23;;;5.73;;
14858;SDS011;7521;51.700;6.874;2024-02-14T18:32:31;6.43;;;5.78;;
14858;SDS011;7521;51.700;6.874;2024-02-14T18:35:40;6.93;;;6.23;;
14858;SDS011;7521;51.700;6.874;2024-02-14T18:38:45;7.77;;;6.07;;
14858;SDS011;7521;51.700;6.874;2024-02-14T18:41:50;7.03;;;6.33;;
14858;SDS011;7521;51.700;6.874;2024-02-14T18:44:56;7.77;;;5.97;;
14858;SDS011;7521;51.700;6.874;2024-02-14T18:48:01;7.13;;;6.43;;
14858;SDS011;7521;51.700;6.874;2024-02-14T18:51:06;7.40;;;6.80;;
14858;SDS011;7521;51.700;6.874;2024-02-14T18:54:12;6.85;;;6.20;;
14858;SDS011;7521;51.700;6.874;2024-02-14T18:57:17;7.75;;;6.78;;